Time;durP1;ratioP1;P1;durP2;ratioP2;P2;SDS_P1;SDS_P2;PMS_P1;PMS_P2;Temp;Humidity;BMP_temperature;BMP_pressure;BME280_temperature;BME280_humidity;BME280_pressure;Samples;Min_cycle;Max_cycle;Signal;HPM_P1;HPM_P2
2022/03/03 00:01:22;;;;;;;111.90;79.70;;;;;;;-2.67;54.98;98210.98;105743;1277;22738;-77
2022/03/03 00:03:50;;;;;;;98.10;74.40;;;;;;;-2.66;54.92;98212.48;105695;1277;22705;-78
2022/03/03 00:06:17;;;;;;;80.20;68.60;;;;;;;-2.63;55.03;98210.04;105519;1279;22544;-79
2022/03/03 00:08:46;;;;;;;87.70;67.00;;;;;;;-2.57;55.21;98208.01;105602;1280;25412;-78
2022/03/03 00:11:14;;;;;;;82.50;69.00;;;;;;;-2.52;55.14;98202.77;105628;1277;25383;-80
2022/03/03 00:13:41;;;;;;;74.90;66.70;;;;;;;-2.46;55.07;98199.33;105901;1278;24451;-81
2022/03/03 00:16:09;;;;;;;76.50;67.80;;;;;;;-2.41;55.23;98194.97;105918;1278;26647;-80
2022/03/03 00:18:40;;;;;;;77.50;69.10;;;;;;;-2.37;55.09;98194.13;106068;1278;22575;-81
2022/03/03 00:21:07;;;;;;;101.90;78.10;;;;;;;-2.33;55.17;98191.98;105774;1278;22557;-80
2022/03/03 00:23:35;;;;;;;156.70;96.30;;;;;;;-2.32;54.98;98194.89;105869;1277;22740;-80
2022/03/03 00:26:03;;;;;;;220.90;135.20;;;;;;;-2.36;54.87;98195.97;105950;1278;23772;-78
2022/03/03 00:28:31;;;;;;;342.40;218.30;;;;;;;-2.41;54.94;98195.21;105809;1277;25474;-80
2022/03/03 00:30:59;;;;;;;255.10;158.10;;;;;;;-2.46;55.11;98192.59;105771;1278;22554;-81
2022/03/03 00:33:27;;;;;;;239.50;148.40;;;;;;;-2.51;55.17;98194.71;105890;1277;22757;-80
2022/03/03 00:35:55;;;;;;;236.50;143.00;;;;;;;-2.57;55.31;98191.20;105836;1278;25377;-80
2022/03/03 00:38:23;;;;;;;238.10;145.70;;;;;;;-2.64;55.35;98188.83;105854;1278;22542;-80
2022/03/03 00:40:53;;;;;;;230.80;142.40;;;;;;;-2.72;55.32;98182.95;105867;1277;22548;-79
2022/03/03 00:43:21;;;;;;;242.50;144.80;;;;;;;-2.81;55.51;98180.66;106022;1278;22578;-83
2022/03/03 00:45:49;;;;;;;236.00;141.30;;;;;;;-2.90;55.51;98179.20;105927;1278;25893;-82
2022/03/03 00:48:19;;;;;;;243.70;138.10;;;;;;;-2.96;55.55;98177.20;106141;1278;25434;-80
2022/03/03 00:50:47;;;;;;;251.80;142.70;;;;;;;-2.98;55.61;98174.44;106097;1279;25470;-81
2022/03/03 00:53:16;;;;;;;256.60;149.70;;;;;;;-2.96;55.81;98174.40;106135;1280;22714;-81
2022/03/03 00:55:43;;;;;;;250.30;146.90;;;;;;;-2.97;56.00;98166.16;105947;1280;22753;-81
2022/03/03 00:58:11;;;;;;;268.90;152.90;;;;;;;-2.96;56.13;98163.48;106229;1280;25672;-80
2022/03/03 01:00:39;;;;;;;259.50;148.40;;;;;;;-2.98;56.24;98161.88;106315;1280;22705;-81
2022/03/03 01:03:10;;;;;;;240.90;147.30;;;;;;;-2.98;56.24;98164.70;106028;1280;24343;-81
2022/03/03 01:05:38;;;;;;;270.70;160.60;;;;;;;-3.02;56.32;98160.48;105929;1280;25277;-82
2022/03/03 01:08:10;;;;;;;215.70;126.80;;;;;;;-3.05;56.42;98160.45;106079;1280;22589;-79
2022/03/03 01:10:38;;;;;;;244.70;143.30;;;;;;;-3.14;56.34;98159.36;105964;1280;23232;-80
2022/03/03 01:13:09;;;;;;;244.80;142.40;;;;;;;-3.29;56.24;98159.62;105955;1280;22535;-80
2022/03/03 01:15:37;;;;;;;231.80;137.50;;;;;;;-3.42;56.37;98158.80;105983;1280;22820;-80
2022/03/03 01:18:05;;;;;;;273.80;159.70;;;;;;;-3.55;56.47;98164.80;105902;1280;25459;-81
2022/03/03 01:20:33;;;;;;;275.80;164.30;;;;;;;-3.67;56.65;98161.59;105800;1280;22603;-80
2022/03/03 01:23:03;;;;;;;282.00;163.90;;;;;;;-3.73;56.97;98159.35;105875;1280;23944;-80
2022/03/03 01:25:31;;;;;;;283.40;169.20;;;;;;;-3.78;57.00;98155.09;105757;1280;255515;-80
2022/03/03 01:28:02;;;;;;;333.40;197.70;;;;;;;-3.82;56.89;98154.79;105661;1280;25374;-79
2022/03/03 01:30:30;;;;;;;315.00;189.50;;;;;;;-3.90;57.04;98154.73;105719;1280;26651;-80
2022/03/03 01:32:59;;;;;;;319.60;193.10;;;;;;;-4.00;56.88;98150.83;105890;1280;25411;-80
2022/03/03 01:35:27;;;;;;;297.30;179.70;;;;;;;-4.11;56.78;98147.44;105855;1280;24452;-80
2022/03/03 01:37:55;;;;;;;286.50;166.60;;;;;;;-4.21;56.93;98150.73;105837;1280;22648;-81
2022/03/03 01:40:23;;;;;;;290.30;170.90;;;;;;;-4.29;57.03;98148.80;105950;1279;26531;-80
2022/03/03 01:42:53;;;;;;;359.00;224.80;;;;;;;-4.33;57.02;98147.56;105699;1280;22554;-81
2022/03/03 01:45:21;;;;;;;316.10;189.60;;;;;;;-4.36;57.29;98146.84;105888;1280;22863;-80
2022/03/03 01:47:49;;;;;;;274.60;165.00;;;;;;;-4.41;57.56;98143.21;105916;1280;24640;-80
2022/03/03 01:50:17;;;;;;;253.10;153.50;;;;;;;-4.48;57.99;98139.46;105708;1280;22560;-80
2022/03/03 01:52:45;;;;;;;234.00;141.60;;;;;;;-4.59;57.98;98138.89;105942;1280;22698;-79
2022/03/03 01:55:13;;;;;;;237.30;138.80;;;;;;;-4.70;58.36;98137.14;105954;1280;25577;-80
2022/03/03 01:57:41;;;;;;;234.90;140.30;;;;;;;-4.76;58.49;98139.05;105948;1280;25376;-81
2022/03/03 02:00:10;;;;;;;231.30;139.30;;;;;;;-4.80;58.98;98137.54;105924;1278;22696;-81
2022/03/03 02:02:39;;;;;;;223.30;136.90;;;;;;;-4.82;58.92;98141.42;105942;1278;22659;-80
2022/03/03 02:05:08;;;;;;;233.30;143.70;;;;;;;-4.83;58.81;98133.16;105784;1280;22554;-80
2022/03/03 02:07:35;;;;;;;209.70;132.80;;;;;;;-4.84;59.01;98133.27;105842;1278;23009;-79
2022/03/03 02:10:05;;;;;;;219.60;138.10;;;;;;;-4.89;58.76;98131.38;105923;1278;24442;-80
2022/03/03 02:12:33;;;;;;;193.20;117.80;;;;;;;-5.00;58.57;98137.08;105771;1279;22658;-80
2022/03/03 02:15:01;;;;;;;171.90;105.40;;;;;;;-5.10;58.71;98131.30;105865;1280;25641;-80
2022/03/03 02:17:29;;;;;;;131.30;93.80;;;;;;;-5.14;59.06;98130.38;105794;1279;22585;-81
2022/03/03 02:19:57;;;;;;;127.70;87.90;;;;;;;-5.16;59.51;98126.16;105954;1280;25401;-80
2022/03/03 02:22:25;;;;;;;118.40;86.40;;;;;;;-5.20;59.85;98124.03;105954;1277;24135;-80
2022/03/03 02:24:53;;;;;;;123.50;92.40;;;;;;;-5.22;59.92;98126.34;105822;1277;22704;-80
2022/03/03 02:27:21;;;;;;;127.30;93.60;;;;;;;-5.24;59.67;98121.02;105902;1280;22926;-79
2022/03/03 02:29:49;;;;;;;155.30;98.70;;;;;;;-5.32;59.73;98118.98;105830;1279;24334;-81
2022/03/03 02:32:17;;;;;;;179.60;109.50;;;;;;;-5.31;60.01;98120.29;105647;1280;24089;-79
2022/03/03 02:34:48;;;;;;;170.20;105.90;;;;;;;-5.26;60.15;98117.42;105883;1280;22555;-80
2022/03/03 02:37:16;;;;;;;159.90;96.80;;;;;;;-5.22;60.03;98119.23;105702;1278;25273;-80
2022/03/03 02:39:44;;;;;;;169.90;102.10;;;;;;;-5.18;59.92;98118.67;105882;1280;25376;-79
2022/03/03 02:42:12;;;;;;;166.90;105.00;;;;;;;-5.10;59.98;98112.09;105741;1280;25302;-79
2022/03/03 02:44:40;;;;;;;179.30;106.80;;;;;;;-5.01;60.08;98108.15;105698;1280;25483;-78
2022/03/03 02:47:08;;;;;;;168.10;105.10;;;;;;;-4.92;60.03;98104.16;105684;1280;22815;-80
2022/03/03 02:49:36;;;;;;;166.30;104.00;;;;;;;-4.85;60.23;98100.83;105664;1280;25779;-80
2022/03/03 02:52:04;;;;;;;161.40;105.90;;;;;;;-4.80;60.04;98098.99;105693;1280;22550;-80
2022/03/03 02:54:32;;;;;;;165.80;100.20;;;;;;;-4.79;59.98;98095.86;105962;1280;22596;-79
2022/03/03 02:59:46;;;;;;;159.50;98.90;;;;;;;-4.87;59.83;98092.98;106058;1280;24308;-79
2022/03/03 03:02:14;;;;;;;152.70;97.50;;;;;;;-4.93;59.85;98093.84;105756;1280;22569;-79
2022/03/03 03:04:43;;;;;;;152.70;99.20;;;;;;;-5.01;60.43;98093.63;105899;1280;22541;-79
2022/03/03 03:07:10;;;;;;;160.80;99.70;;;;;;;-5.09;60.16;98094.98;105840;1280;25430;-80
2022/03/03 03:09:38;;;;;;;143.80;95.00;;;;;;;-5.16;60.35;98097.63;105895;1279;23976;-80
2022/03/03 03:12:06;;;;;;;154.30;100.20;;;;;;;-5.25;60.78;98095.36;105938;1280;24096;-80
2022/03/03 03:14:34;;;;;;;154.50;95.90;;;;;;;-5.33;61.32;98095.14;105874;1280;22757;-80
2022/03/03 03:17:02;;;;;;;137.90;91.70;;;;;;;-5.37;61.20;98093.87;105801;1280;22628;-80
2022/03/03 03:19:30;;;;;;;140.90;94.50;;;;;;;-5.37;61.09;98093.54;105807;1277;22550;-81
2022/03/03 03:21:59;;;;;;;137.40;90.60;;;;;;;-5.36;60.91;98093.80;105801;1280;22574;-81
2022/03/03 03:24:27;;;;;;;149.70;98.00;;;;;;;-5.36;60.93;98091.20;105963;1280;25664;-81
2022/03/03 03:26:55;;;;;;;145.80;95.70;;;;;;;-5.39;60.97;98090.30;105673;1280;22528;-80
2022/03/03 03:29:23;;;;;;;151.50;97.90;;;;;;;-5.43;61.02;98091.75;105696;1280;25383;-80
2022/03/03 03:31:51;;;;;;;157.10;98.00;;;;;;;-5.46;61.08;98088.31;105687;1280;24451;-80
2022/03/03 03:34:19;;;;;;;154.00;101.10;;;;;;;-5.49;61.32;98087.69;105969;1278;24316;-80
2022/03/03 03:36:47;;;;;;;149.40;100.10;;;;;;;-5.51;61.35;98093.68;105908;1280;22688;-80
2022/03/03 03:39:15;;;;;;;156.70;102.30;;;;;;;-5.54;61.22;98095.45;105966;1279;22578;-81
2022/03/03 03:41:43;;;;;;;172.20;109.00;;;;;;;-5.59;61.50;98092.95;106021;1278;25333;-80
2022/03/03 03:44:11;;;;;;;173.40;107.70;;;;;;;-5.66;61.51;98093.69;105872;1280;25388;-80
2022/03/03 03:46:39;;;;;;;171.80;102.90;;;;;;;-5.68;61.72;98092.74;105810;1279;25305;-80
2022/03/03 03:49:07;;;;;;;156.60;98.40;;;;;;;-5.66;62.04;98086.86;105785;1280;24370;-79
2022/03/03 03:51:35;;;;;;;145.60;94.40;;;;;;;-5.60;61.74;98082.55;105936;1280;22705;-79
2022/03/03 03:54:03;;;;;;;137.40;91.20;;;;;;;-5.52;61.63;98082.27;105918;1280;22911;-79
2022/03/03 03:56:31;;;;;;;198.60;116.60;;;;;;;-5.43;61.67;98077.58;105934;1280;22670;-79
2022/03/03 03:58:58;;;;;;;302.60;159.80;;;;;;;-5.38;61.87;98074.86;105839;1277;25434;-79
2022/03/03 04:01:27;;;;;;;165.20;103.00;;;;;;;-5.35;61.82;98071.27;105758;1280;22710;-79
2022/03/03 04:03:55;;;;;;;159.00;102.60;;;;;;;-5.35;61.77;98064.56;105931;1280;22693;-79
2022/03/03 04:06:23;;;;;;;159.30;103.10;;;;;;;-5.36;61.68;98064.95;105946;1278;25372;-80
2022/03/03 04:08:51;;;;;;;184.80;115.60;;;;;;;-5.40;61.62;98066.16;105867;1280;24287;-80
2022/03/03 04:11:19;;;;;;;159.40;110.20;;;;;;;-5.46;61.58;98065.19;105829;1278;22563;-80
2022/03/03 04:13:47;;;;;;;148.70;97.20;;;;;;;-5.57;61.38;98058.02;105853;1277;22614;-78
2022/03/03 04:16:15;;;;;;;158.30;102.50;;;;;;;-5.72;61.16;98056.98;105779;1280;22846;-79
2022/03/03 04:18:43;;;;;;;159.90;106.00;;;;;;;-5.86;61.43;98057.15;105958;1280;24252;-79
2022/03/03 04:21:11;;;;;;;188.90;115.50;;;;;;;-5.97;61.75;98055.15;106000;1280;22553;-80
2022/03/03 04:23:39;;;;;;;197.80;118.70;;;;;;;-6.00;61.92;98049.80;106006;1278;23719;-78
2022/03/03 04:26:07;;;;;;;195.90;114.90;;;;;;;-5.96;61.84;98043.67;105786;1280;22698;-79
2022/03/03 04:28:35;;;;;;;221.30;132.40;;;;;;;-5.88;62.27;98042.95;105678;1280;24407;-81
2022/03/03 04:31:05;;;;;;;211.50;126.30;;;;;;;-5.83;62.29;98036.66;106269;1279;24316;-78
2022/03/03 04:33:34;;;;;;;176.60;110.10;;;;;;;-5.81;62.07;98036.84;107159;1277;24364;-79
2022/03/03 04:36:02;;;;;;;182.60;118.80;;;;;;;-5.88;61.81;98035.23;106484;1280;22704;-79
2022/03/03 04:38:30;;;;;;;193.60;123.70;;;;;;;-6.01;62.08;98041.72;106506;1277;22732;-80
2022/03/03 04:40:58;;;;;;;208.90;132.20;;;;;;;-6.14;61.97;98043.10;106579;1280;22611;-80
2022/03/03 04:43:26;;;;;;;239.60;150.10;;;;;;;-6.24;62.11;98040.80;107997;1278;25368;-79
2022/03/03 04:45:54;;;;;;;267.90;170.20;;;;;;;-6.29;62.12;98041.11;106279;1278;26619;-81
2022/03/03 04:48:29;;;;;;;265.50;165.60;;;;;;;-6.32;62.57;98039.34;106213;1280;25681;-80
2022/03/03 04:50:58;;;;;;;208.90;128.80;;;;;;;-6.35;62.51;98038.55;106200;1278;22647;-80
2022/03/03 04:53:27;;;;;;;217.90;123.20;;;;;;;-6.42;61.98;98037.93;106126;1280;24243;-82
2022/03/03 04:56:52;;;;;;;190.70;116.20;;;;;;;-6.45;62.22;98035.99;106273;1278;23216;-80
2022/03/03 04:59:20;;;;;;;189.20;118.30;;;;;;;-6.53;62.12;98034.70;106157;1278;22654;-80
2022/03/03 05:02:42;;;;;;;182.50;112.00;;;;;;;-6.66;62.47;98039.52;106174;1280;23272;-79
2022/03/03 05:05:10;;;;;;;185.30;119.40;;;;;;;-6.84;62.91;98034.70;106012;1278;22688;-80
2022/03/03 05:07:38;;;;;;;192.50;124.70;;;;;;;-6.95;63.06;98032.83;105748;1280;22623;-81
2022/03/03 05:10:07;;;;;;;201.90;128.10;;;;;;;-7.01;63.44;98037.20;106027;1280;22541;-82
2022/03/03 05:12:35;;;;;;;205.90;133.60;;;;;;;-7.04;63.70;98036.67;105957;1280;22871;-81
2022/03/03 05:15:04;;;;;;;284.40;185.90;;;;;;;-7.06;63.56;98036.12;105783;1280;22602;-81
2022/03/03 05:17:31;;;;;;;341.00;225.10;;;;;;;-7.05;64.27;98035.25;105960;1279;23242;-80
2022/03/03 05:19:59;;;;;;;242.60;146.70;;;;;;;-6.99;64.65;98029.35;105954;1277;24851;-79
2022/03/03 05:22:28;;;;;;;264.90;167.50;;;;;;;-6.98;64.11;98033.77;105878;1280;22601;-79
2022/03/03 05:24:56;;;;;;;199.30;124.50;;;;;;;-6.97;64.07;98030.31;105930;1280;22691;-79
2022/03/03 05:27:23;;;;;;;206.90;128.10;;;;;;;-6.96;64.07;98030.70;105788;1279;24375;-79
2022/03/03 05:29:52;;;;;;;220.20;137.90;;;;;;;-6.96;64.66;98035.69;105683;1279;24335;-77
2022/03/03 05:32:20;;;;;;;215.00;132.60;;;;;;;-6.97;64.97;98034.33;105944;1280;24074;-80
2022/03/03 05:34:48;;;;;;;231.60;152.60;;;;;;;-6.97;64.79;98037.58;105720;1280;23383;-79
2022/03/03 05:37:24;;;;;;;247.10;159.80;;;;;;;-6.98;64.67;98040.85;105914;1280;24352;-80
2022/03/03 05:39:52;;;;;;;245.30;155.00;;;;;;;-6.96;64.77;98043.38;105865;1280;22764;-79
2022/03/03 05:42:22;;;;;;;237.10;148.70;;;;;;;-6.90;65.16;98041.44;105966;1280;24306;-80
2022/03/03 05:44:51;;;;;;;233.20;143.30;;;;;;;-6.78;65.29;98039.55;105930;1280;22703;-80
2022/03/03 05:47:19;;;;;;;232.10;142.80;;;;;;;-6.62;65.44;98041.14;105939;1278;24380;-82
2022/03/03 05:49:50;;;;;;;222.70;133.80;;;;;;;-6.45;65.16;98043.45;105766;1280;22537;-80
2022/03/03 05:52:18;;;;;;;224.00;137.80;;;;;;;-6.34;64.72;98037.84;105961;1278;22558;-79
2022/03/03 05:54:47;;;;;;;237.40;142.20;;;;;;;-6.24;64.93;98033.73;105773;1280;24266;-79
2022/03/03 05:57:25;;;;;;;219.70;137.40;;;;;;;-6.17;64.88;98034.94;105876;1280;25259;-78
2022/03/03 05:59:57;;;;;;;211.70;129.50;;;;;;;-6.12;64.80;98030.63;105880;1279;24259;-79
2022/03/03 06:02:26;;;;;;;216.70;132.40;;;;;;;-6.10;64.69;98031.27;105921;1280;22710;-79
2022/03/03 06:04:57;;;;;;;218.40;133.00;;;;;;;-6.15;64.39;98032.81;105913;1278;22695;-79
2022/03/03 06:07:29;;;;;;;209.20;130.10;;;;;;;-6.23;64.06;98032.85;106050;1280;22646;-80
2022/03/03 06:10:01;;;;;;;231.80;148.90;;;;;;;-6.31;64.05;98034.06;105914;1278;23454;-80
2022/03/03 06:12:45;;;;;;;222.00;141.00;;;;;;;-6.35;64.17;98031.52;105929;1280;23384;-79
2022/03/03 06:15:14;;;;;;;216.90;132.00;;;;;;;-6.35;64.56;98023.22;105874;1277;25431;-80
2022/03/03 06:17:43;;;;;;;198.30;118.80;;;;;;;-6.30;64.55;98031.02;105948;1278;25120;-79
2022/03/03 06:20:12;;;;;;;210.40;126.80;;;;;;;-6.26;64.45;98027.66;106028;1278;24248;-80
2022/03/03 06:22:41;;;;;;;212.10;131.90;;;;;;;-6.09;64.77;98037.26;105901;1280;22657;-79
2022/03/03 06:25:12;;;;;;;248.80;147.40;;;;;;;-5.95;65.09;98033.32;105963;1280;22613;-81
2022/03/03 06:27:43;;;;;;;232.60;144.30;;;;;;;-5.84;65.14;98035.17;105757;1280;26384;-84
2022/03/03 06:30:11;;;;;;;266.60;172.40;;;;;;;-5.74;65.16;98039.67;105866;1278;24451;-79
2022/03/03 06:32:39;;;;;;;272.30;160.70;;;;;;;-5.63;65.21;98041.89;105946;1278;22797;-79
2022/03/03 06:35:18;;;;;;;298.40;185.00;;;;;;;-5.53;65.20;98038.33;105972;1280;24326;-78
2022/03/03 06:37:49;;;;;;;307.90;186.50;;;;;;;-5.43;65.15;98032.83;106017;1277;22557;-79
2022/03/03 06:40:17;;;;;;;311.70;191.80;;;;;;;-5.33;65.08;98033.23;105994;1278;25381;-78
2022/03/03 06:42:45;;;;;;;310.10;184.30;;;;;;;-5.23;65.34;98042.79;105712;1278;25366;-77
2022/03/03 06:45:17;;;;;;;280.80;171.80;;;;;;;-5.11;65.23;98043.86;105943;1278;22618;-77
2022/03/03 06:47:46;;;;;;;270.10;169.00;;;;;;;-4.97;65.21;98045.79;105954;1277;23979;-77
2022/03/03 06:50:14;;;;;;;261.90;161.70;;;;;;;-4.82;65.40;98048.44;106035;1278;24005;-77
2022/03/03 06:52:48;;;;;;;264.30;161.20;;;;;;;-4.70;65.31;98046.17;105816;1278;22535;-76
2022/03/03 06:55:25;;;;;;;270.40;156.90;;;;;;;-4.59;65.25;98041.11;105655;1278;22577;-76
2022/03/03 06:57:55;;;;;;;267.90;166.00;;;;;;;-4.48;65.40;98039.80;105746;1277;22931;-75
2022/03/03 07:00:25;;;;;;;269.50;168.40;;;;;;;-4.37;65.50;98038.61;105640;1278;22706;-74
2022/03/03 07:02:54;;;;;;;257.50;160.30;;;;;;;-4.26;65.61;98035.20;105578;1280;22588;-76
2022/03/03 07:05:22;;;;;;;235.80;146.90;;;;;;;-4.15;65.55;98034.52;105842;1278;25471;-78
2022/03/03 07:07:54;;;;;;;239.60;149.60;;;;;;;-4.05;65.49;98033.89;105884;1278;22528;-79
2022/03/03 07:10:25;;;;;;;240.00;150.50;;;;;;;-3.95;65.39;98034.45;106250;1278;22993;-78
2022/03/03 07:12:57;;;;;;;245.50;147.50;;;;;;;-3.85;65.38;98034.55;106287;1278;25598;-79
2022/03/03 07:15:28;;;;;;;240.70;141.40;;;;;;;-3.72;65.25;98035.14;106201;1277;24511;-79
2022/03/03 07:18:16;;;;;;;246.10;148.90;;;;;;;-3.55;65.18;98032.05;106265;1277;22697;-83
2022/03/03 07:21:05;;;;;;;208.40;129.40;;;;;;;-3.37;65.09;98025.61;106025;1280;22544;-78
2022/03/03 07:23:42;;;;;;;231.80;145.90;;;;;;;-3.24;65.17;98022.10;106167;1278;22812;-78
2022/03/03 07:26:16;;;;;;;238.80;151.60;;;;;;;-3.11;65.43;98024.37;106279;1278;25489;-77
2022/03/03 07:28:52;;;;;;;258.40;154.60;;;;;;;-2.97;65.38;98021.89;106221;1277;22864;-78
2022/03/03 07:31:25;;;;;;;265.60;158.40;;;;;;;-2.83;65.37;98024.52;106216;1278;25488;-77
2022/03/03 07:33:55;;;;;;;253.50;154.00;;;;;;;-2.69;65.29;98018.84;106246;1277;22591;-79
2022/03/03 07:36:25;;;;;;;257.30;156.20;;;;;;;-2.58;65.02;98014.81;106045;1280;22927;-79
2022/03/03 07:39:04;;;;;;;282.90;175.30;;;;;;;-2.46;64.99;98012.88;106174;1278;22580;-77
2022/03/03 07:41:32;;;;;;;258.60;164.00;;;;;;;-2.34;65.08;98013.98;106027;1280;25570;-77
2022/03/03 07:44:06;;;;;;;240.40;148.60;;;;;;;-2.20;65.04;98015.92;105921;1278;22579;-78
2022/03/03 07:46:37;;;;;;;226.60;142.90;;;;;;;-2.07;65.19;98017.45;106051;1278;22622;-79
2022/03/03 07:49:06;;;;;;;276.60;183.40;;;;;;;-1.96;64.99;98012.86;105939;1278;22698;-79
2022/03/03 07:51:37;;;;;;;240.40;151.50;;;;;;;-1.85;64.91;98010.73;106019;1278;22698;-78
2022/03/03 07:54:05;;;;;;;251.00;149.80;;;;;;;-1.74;65.00;98014.02;105983;1277;22702;-77
2022/03/03 07:56:43;;;;;;;234.70;146.40;;;;;;;-1.60;64.87;98014.35;105936;1278;24458;-79
2022/03/03 07:59:16;;;;;;;218.10;133.30;;;;;;;-1.46;64.69;98009.38;105891;1278;22888;-78
2022/03/03 08:01:45;;;;;;;215.30;135.70;;;;;;;-1.32;64.75;98010.58;105918;1280;22882;-79
2022/03/03 08:04:16;;;;;;;218.70;132.90;;;;;;;-1.20;64.79;98009.36;105976;1280;23563;-79
2022/03/03 08:06:45;;;;;;;216.20;134.30;;;;;;;-1.10;64.70;98010.39;105930;1277;25497;-78
2022/03/03 08:09:17;;;;;;;212.00;134.00;;;;;;;-1.01;64.75;98010.59;105981;1280;22660;-78
2022/03/03 08:11:51;;;;;;;218.30;137.60;;;;;;;-0.92;64.62;98009.32;106202;1278;24532;-78
2022/03/03 08:14:23;;;;;;;222.60;142.60;;;;;;;-0.84;64.55;98006.94;106163;1281;22769;-78
2022/03/03 08:16:51;;;;;;;219.00;139.60;;;;;;;-0.75;64.52;98005.96;105992;1280;22566;-80
2022/03/03 08:19:22;;;;;;;226.90;145.00;;;;;;;-0.66;64.45;98005.20;105787;1278;22538;-79
2022/03/03 08:21:50;;;;;;;224.10;134.10;;;;;;;-0.56;64.32;98006.02;106131;1278;24287;-79
2022/03/03 08:24:21;;;;;;;218.10;135.00;;;;;;;-0.46;64.25;98003.52;105963;1280;24239;-80
2022/03/03 08:26:49;;;;;;;215.20;137.50;;;;;;;-0.35;64.15;98003.05;106036;1277;22874;-80
2022/03/03 08:29:16;;;;;;;217.70;136.00;;;;;;;-0.26;64.41;98000.53;106135;1278;25316;-78
2022/03/03 08:31:53;;;;;;;207.90;132.80;;;;;;;-0.14;64.18;97994.46;105996;1278;22714;-80
2022/03/03 08:34:36;;;;;;;208.80;133.90;;;;;;;-0.05;64.06;97997.63;106098;1277;24399;-81
2022/03/03 08:37:11;;;;;;;205.50;129.70;;;;;;;0.06;64.08;97993.94;106102;1278;22615;-81
2022/03/03 08:39:40;;;;;;;197.90;127.40;;;;;;;0.13;63.92;97995.50;106095;1278;25428;-80
2022/03/03 08:42:16;;;;;;;195.00;124.60;;;;;;;0.18;63.69;97991.87;106069;1278;22617;-80
2022/03/03 08:44:53;;;;;;;194.00;124.30;;;;;;;0.22;63.45;97992.54;106008;1278;22719;-80
2022/03/03 08:47:22;;;;;;;177.00;114.10;;;;;;;0.27;63.57;97994.34;106012;1280;25418;-80
2022/03/03 08:49:58;;;;;;;177.20;116.20;;;;;;;0.31;63.36;97990.71;106031;1280;25310;-83
2022/03/03 08:52:46;;;;;;;164.30;107.20;;;;;;;0.32;63.14;97993.77;106145;1280;22914;-81
2022/03/03 08:55:15;;;;;;;168.60;109.00;;;;;;;0.33;62.71;97993.80;105954;1281;22760;-80
2022/03/03 08:57:43;;;;;;;157.50;103.10;;;;;;;0.36;63.10;97986.02;106146;1281;22880;-80
2022/03/03 09:00:12;;;;;;;138.70;91.90;;;;;;;0.45;63.14;97986.33;106136;1281;22544;-79
2022/03/03 09:02:43;;;;;;;125.80;89.00;;;;;;;0.53;62.66;97987.73;106245;1280;25214;-82
2022/03/03 09:05:11;;;;;;;120.30;86.00;;;;;;;0.58;62.57;97992.16;105949;1281;23389;-80
2022/03/03 09:07:39;;;;;;;125.00;87.30;;;;;;;0.64;62.48;97986.52;105930;1280;23954;-81
2022/03/03 09:10:08;;;;;;;87.00;71.70;;;;;;;0.72;62.33;97984.94;105882;1280;22535;-78
2022/03/03 09:12:36;;;;;;;77.20;67.60;;;;;;;0.79;62.04;97985.29;106019;1280;22688;-78
2022/03/03 09:15:06;;;;;;;72.80;64.60;;;;;;;0.85;62.21;97984.14;106172;1280;22745;-78
2022/03/03 09:17:36;;;;;;;73.10;65.20;;;;;;;0.92;61.22;97981.90;106144;1280;23351;-80
2022/03/03 09:20:07;;;;;;;80.20;70.20;;;;;;;0.94;60.98;97976.48;106146;1280;24614;-78
2022/03/03 09:22:35;;;;;;;69.40;62.50;;;;;;;1.04;60.90;97972.44;106310;1281;22588;-79
2022/03/03 09:25:05;;;;;;;78.30;62.50;;;;;;;1.11;60.34;97968.70;105811;1278;22554;-80
2022/03/03 09:27:34;;;;;;;69.40;62.10;;;;;;;1.17;60.25;97967.39;106255;1281;24392;-80
2022/03/03 09:30:04;;;;;;;71.80;64.10;;;;;;;1.23;60.08;97967.35;106165;1281;22556;-80
2022/03/03 09:32:34;;;;;;;76.30;67.90;;;;;;;1.32;60.80;97966.45;106132;1281;22766;-79
2022/03/03 09:35:03;;;;;;;74.70;67.00;;;;;;;1.47;61.18;97961.35;106072;1280;24436;-80
2022/03/03 09:37:31;;;;;;;79.50;70.10;;;;;;;1.63;60.19;97961.20;106119;1280;22625;-79
2022/03/03 09:39:59;;;;;;;69.90;63.00;;;;;;;1.72;60.07;97968.55;106201;1281;24236;-79
2022/03/03 09:42:34;;;;;;;62.50;56.40;;;;;;;1.75;59.75;97961.33;106092;1280;22582;-80
2022/03/03 09:45:08;;;;;;;61.80;55.20;;;;;;;1.80;58.83;97960.35;105810;1283;22700;-78
2022/03/03 09:47:37;;;;;;;60.70;54.50;;;;;;;1.91;58.36;97961.20;106136;1280;22573;-78
2022/03/03 09:50:07;;;;;;;61.70;55.60;;;;;;;2.07;58.47;97962.42;105763;1281;24244;-78
2022/03/03 09:52:36;;;;;;;62.80;56.60;;;;;;;2.20;58.89;97961.89;105908;1281;22700;-80
2022/03/03 09:55:05;;;;;;;64.70;57.90;;;;;;;2.36;58.59;97958.76;105911;1281;24291;-80
2022/03/03 09:57:35;;;;;;;63.00;56.70;;;;;;;2.48;58.60;97952.13;106233;1280;25323;-80
2022/03/03 10:00:09;;;;;;;65.40;58.70;;;;;;;2.60;58.29;97950.70;106263;1280;25466;-79
2022/03/03 10:02:57;;;;;;;59.60;51.80;;;;;;;2.70;57.31;97948.85;106126;1281;23219;-79
2022/03/03 10:05:36;;;;;;;60.10;54.30;;;;;;;2.80;56.23;97957.93;106194;1281;23202;-79
2022/03/03 10:08:10;;;;;;;52.20;47.20;;;;;;;2.83;56.32;97963.44;105896;1281;25248;-78
2022/03/03 10:10:41;;;;;;;59.30;53.50;;;;;;;2.81;54.51;97968.63;105933;1281;22565;-79
2022/03/03 10:13:10;;;;;;;59.00;53.40;;;;;;;2.59;54.09;97970.05;106221;1279;22642;-79
2022/03/03 10:15:38;;;;;;;57.90;52.50;;;;;;;2.44;54.42;97973.06;105913;1281;24281;-79
2022/03/03 10:18:10;;;;;;;63.00;54.20;;;;;;;2.30;54.39;97964.21;105667;1281;22560;-80
2022/03/03 10:20:51;;;;;;;63.70;55.10;;;;;;;2.20;55.20;97963.30;106003;1280;22882;-79
2022/03/03 10:23:27;;;;;;;59.30;53.50;;;;;;;2.20;55.02;97962.31;106559;1281;23410;-77
2022/03/03 10:25:58;;;;;;;66.10;59.30;;;;;;;2.15;54.12;97963.55;105826;1281;26695;-79
2022/03/03 10:28:31;;;;;;;68.90;61.90;;;;;;;2.03;53.46;97962.63;106232;1281;24335;-79
2022/03/03 10:31:04;;;;;;;67.30;60.30;;;;;;;1.96;53.98;97964.16;106516;1280;22903;-79
2022/03/03 10:33:35;;;;;;;70.10;63.00;;;;;;;1.91;53.72;97962.20;105832;1281;24464;-79
2022/03/03 10:36:31;;;;;;;77.60;64.80;;;;;;;1.86;54.04;97957.20;106047;1281;22553;-78
2022/03/03 10:38:59;;;;;;;;;;;;;;;1.91;54.34;97947.71;105985;1281;25592;-79
2022/03/03 10:41:41;;;;;;;69.50;62.40;;;;;;;1.99;54.69;97950.23;106045;1280;22540;-79
2022/03/03 10:44:10;;;;;;;73.80;66.70;;;;;;;2.07;53.67;97952.33;106047;1280;24470;-79
2022/03/03 10:47:00;;;;;;;75.10;63.20;;;;;;;2.11;53.68;97954.15;106083;1281;22711;-79
2022/03/03 10:49:28;;;;;;;69.20;62.40;;;;;;;2.12;53.06;97952.36;105880;1281;25498;-78
2022/03/03 10:52:16;;;;;;;68.90;61.80;;;;;;;2.12;52.82;97949.70;105695;1281;25552;-78
2022/03/03 10:55:01;;;;;;;69.30;62.10;;;;;;;2.08;53.57;97941.05;106026;1281;26057;-81
2022/03/03 10:58:03;;;;;;;68.10;59.60;;;;;;;2.16;53.59;97935.94;106197;1279;25685;-80
2022/03/03 11:00:35;;;;;;;74.40;61.20;;;;;;;2.31;53.82;97935.02;105139;1287;25363;-81
2022/03/03 11:03:06;;;;;;;67.20;56.90;;;;;;;2.43;54.15;97922.38;105278;1287;24240;-81
2022/03/03 11:05:35;;;;;;;63.00;56.60;;;;;;;2.58;53.34;97924.10;105155;1287;26912;-81
2022/03/03 11:08:03;;;;;;;61.00;54.80;;;;;;;2.66;53.78;97922.42;105098;1287;22572;-80
2022/03/03 11:10:31;;;;;;;61.20;53.90;;;;;;;2.76;53.24;97924.83;105104;1287;25398;-80
2022/03/03 11:12:59;;;;;;;63.60;56.90;;;;;;;2.84;53.42;97915.02;105168;1287;25689;-80
2022/03/03 11:15:32;;;;;;;66.60;59.70;;;;;;;2.95;53.72;97915.85;105100;1287;22661;-83
2022/03/03 11:18:03;;;;;;;68.80;61.20;;;;;;;3.13;52.76;97918.45;105014;1290;26657;-81